Terminal Aerodrome Forecast
Issued by NWS Mt. Holly, NJ

Home | Current Version | Previous Version | Text Only | Print | Product List | Glossary On
Versions: 1 2 3 4 5 6 7 8 9 10 11 12 13 14 15 16 17 18 19 20 21 22 23 24 25 26 27 28 29 30 31 32 33 34 35 36 37 38 39 40 41 42 43 44
539
FTAK31 PANC 040527
TAFABE
TAF
PABE 040527Z 0406/0506 07006KT P6SM VCSH SCT030 BKN070
     FM040800 VRB06KT P6SM SCT030 SCT070
     FM041200 VRB04KT 3SM BR OVC010
     FM042000 11010KT P6SM VCSH SCT020 BKN050
     FM050000 12010KT P6SM -SHRA SCT015 BKN040=

USA.gov is the U.S. government's official web portal to all federal, state and local government web resources and services.